Olib — 9AA6266 — position and weather

sailwx.info

Track history (hours):
 
Tides and Currents Weather Stations Pressure Air Temp Water Temp Dewpoint Dewpoint Depression Visibility Wind Speed Wind Dir Waves Ship Positions

Olib

Last reported at 2016-Apr-29 03:21 UTC. Time now 2016-Apr-29 04:01 UTC.
Position N 59°55' E 026°04'.

Length 247 m; draft 8.4 m.

Type: Ship. MMSI: 238252000.

Date/timePositionNaut miles runAvg speedWind from/ knotsBaromVisibWave heightAir tempDewpointWater temp
2016-Apr-29 03:21N 59°55' E 026°04'5912.1
2016-Apr-28 22:27N 59°41' E 024°09'1112.4
2016-Apr-28 21:33N 59°37' E 023°48'1212.4
2016-Apr-28 20:33N 59°33' E 023°25'  
2016-Apr-25 14:32N 59°35' E 023°04'1313.0
2016-Apr-25 13:33N 59°39' E 023°28'1312.7
2016-Apr-25 12:33N 59°43' E 023°53'7612.0
2016-Apr-25 06:13N 59°60' E 026°20'710.2
2016-Apr-25 05:33N 60°01' E 026°33'1010.4
2016-Apr-25 04:33N 60°00' E 026°54'2410.1
2016-Apr-25 02:12N 60°10' E 027°37'710.0
2016-Apr-25 01:33N 60°12' E 027°50'1111.1
2016-Apr-25 00:33N 60°09' E 028°11'1110.8
2016-Apr-24 23:33N 60°04' E 028°31'7 7.3
2016-Apr-24 22:33N 59°57' E 028°34'9 9.3
2016-Apr-24 21:33N 59°48' E 028°25'6 6.0
2016-Apr-24 20:33N 59°42' E 028°26'0 0.0
2016-Apr-24 19:32N 59°42' E 028°26'0 0.0
2016-Apr-24 18:32N 59°42' E 028°26'0 0.0
2016-Apr-24 17:23N 59°42' E 028°26'0 0.0
2016-Apr-24 16:26N 59°42' E 028°26'0 0.0
2016-Apr-24 15:26N 59°42' E 028°26'0 0.0
2016-Apr-24 14:26N 59°42' E 028°26'0 0.0
2016-Apr-24 13:26N 59°42' E 028°26'0 0.0
2016-Apr-24 12:26N 59°42' E 028°26'0 0.0
2016-Apr-24 11:29N 59°42' E 028°26'0 0.0
2016-Apr-24 10:32N 59°42' E 028°26'0 0.0
2016-Apr-24 09:29N 59°42' E 028°26'0 0.0
2016-Apr-24 08:32N 59°42' E 028°26'0 0.0
2016-Apr-24 07:32N 59°42' E 028°26'0 0.0
2016-Apr-24 06:32N 59°42' E 028°26'0 0.0
2016-Apr-24 05:32N 59°42' E 028°26'0 0.0
2016-Apr-24 04:32N 59°42' E 028°26'0 0.0
2016-Apr-24 03:23N 59°42' E 028°26'0 0.0
2016-Apr-24 02:23N 59°42' E 028°26'0 0.0
2016-Apr-24 01:23N 59°42' E 028°26'0 0.0
2016-Apr-24 00:26N 59°42' E 028°26'0 0.0
2016-Apr-23 23:29N 59°42' E 028°26'0 0.0
2016-Apr-23 22:29N 59°42' E 028°26'0 0.0
2016-Apr-23 21:29N 59°42' E 028°26'0 0.0
2016-Apr-23 20:32N 59°42' E 028°26'0 0.0
2016-Apr-23 19:32N 59°42' E 028°26'0 0.0
2016-Apr-23 18:32N 59°42' E 028°26'0 0.0
2016-Apr-23 17:32N 59°42' E 028°26'0 0.0
2016-Apr-23 16:32N 59°42' E 028°26'0 0.0
2016-Apr-23 15:33N 59°42' E 028°26'3 2.6
2016-Apr-23 14:33N 59°45' E 028°24'1110.9
2016-Apr-23 13:33N 59°55' E 028°32'2 2.4
2016-Apr-23 12:32N 59°56' E 028°37'0 0.0
2016-Apr-23 11:32N 59°56' E 028°37'0 0.0
2016-Apr-23 10:32N 59°56' E 028°37'0 0.0
2016-Apr-23 09:32N 59°56' E 028°37'0 0.0
2016-Apr-23 08:32N 59°56' E 028°37'0 0.0
2016-Apr-23 07:32N 59°56' E 028°37'0 0.0
2016-Apr-23 06:32N 59°56' E 028°37'0 0.1
2016-Apr-23 04:26N 59°56' E 028°37'0 0.0
2016-Apr-23 03:26N 59°56' E 028°37'0 0.0
2016-Apr-23 02:26N 59°56' E 028°37'0 0.0
2016-Apr-23 01:26N 59°56' E 028°37'0 0.0
2016-Apr-23 00:29N 59°56' E 028°37'0 0.0
2016-Apr-22 23:29N 59°56' E 028°37'0 0.0
2016-Apr-22 22:32N 59°56' E 028°37'0 0.0
2016-Apr-22 21:32N 59°56' E 028°37'0 0.0
2016-Apr-22 20:32N 59°56' E 028°37'0 0.0
2016-Apr-22 19:32N 59°56' E 028°37'0 0.1
2016-Apr-22 18:32N 59°56' E 028°37'0 0.0
2016-Apr-22 17:32N 59°56' E 028°37'0 0.2
2016-Apr-22 16:32N 59°56' E 028°37'0 0.5
2016-Apr-22 15:33N 59°56' E 028°36'8 7.9
2016-Apr-22 14:33N 60°03' E 028°27'1111.3
2016-Apr-22 13:33N 60°08' E 028°07'1610.9
2016-Apr-22 12:05N 60°08' E 027°35'2011.5
2016-Apr-22 10:21N 59°58' E 026°60'911.7
2016-Apr-22 09:33N 59°59' E 026°41'1211.7
2016-Apr-22 08:33N 59°57' E 026°19'7211.6
2016-Apr-22 02:17N 59°39' E 023°59'1011.9
2016-Apr-22 01:24N 59°36' E 023°39'1011.7
2016-Apr-22 00:32N 59°33' E 023°21'22911.4
2016-Apr-21 04:25N 56°29' E 019°01'2311.3
2016-Apr-21 02:24N 56°13' E 018°33'1011.8
2016-Apr-21 01:34N 56°07' E 018°18'1211.7
2016-Apr-21 00:33N 56°01' E 017°60'1211.7
2016-Apr-20 23:33N 55°55' E 017°42'1211.7
2016-Apr-20 22:33N 55°52' E 017°22'1211.6
2016-Apr-20 21:32N 55°50' E 017°01'4711.8
2016-Apr-20 17:33N 55°39' E 015°40'1212.1
2016-Apr-20 16:33N 55°35' E 015°20'1212.1
2016-Apr-20 15:33N 55°29' E 015°01'1212.1
2016-Apr-20 14:33N 55°24' E 014°42'1111.4
2016-Apr-20 13:33N 55°16' E 014°28'1211.5
2016-Apr-20 12:33N 55°07' E 014°15'1111.4
2016-Apr-20 11:33N 54°60' E 013°60'1212.0
2016-Apr-20 10:33N 54°55' E 013°40'3611.9
2016-Apr-20 07:31N 54°43' E 012°41'1212.2
2016-Apr-20 06:31N 54°37' E 012°23'1110.4
2016-Apr-20 05:30N 54°28' E 012°13'1010.7
2016-Apr-20 04:33N 54°25' E 011°56'1312.8
2016-Apr-20 03:33N 54°28' E 011°35'1313.2
2016-Apr-20 02:33N 54°34' E 011°15'1313.0
2016-Apr-20 01:33N 54°41' E 010°56'1312.9
2016-Apr-20 00:33N 54°53' E 010°53'1313.4
2016-Apr-19 23:34N 55°06' E 011°02'1211.8
2016-Apr-19 22:33N 55°18' E 011°03'7610.7
2016-Apr-19 15:30N 56°32' E 011°24'1110.5
2016-Apr-19 14:29N 56°39' E 011°38'1010.5
2016-Apr-19 13:33N 56°46' E 011°52'1211.8
2016-Apr-19 12:33N 56°57' E 011°45'1211.4
2016-Apr-19 11:30N 57°08' E 011°37'1111.4
2016-Apr-19 10:33N 57°18' E 011°31'1211.7
2016-Apr-19 09:33N 57°29' E 011°22'1211.9
2016-Apr-19 08:33N 57°37' E 011°06'1212.1
2016-Apr-19 07:33N 57°45' E 010°49'1212.2
2016-Apr-19 06:34N 57°48' E 010°27'  
Track history (hours):
 
Tides and Currents Weather Stations Pressure Air Temp Water Temp Dewpoint Dewpoint Depression Visibility Wind Speed Wind Dir Waves Ship Positions

Olib

Last reported at 2016-Apr-29 03:21 UTC. Time now 2016-Apr-29 04:01 UTC.
Position N 59°55' E 026°04'.

Length 247 m; draft 8.4 m.

Type: Ship. MMSI: 238252000.

Date/timePositionNaut miles runAvg speedWind from/ knotsBaromVisibWave heightAir tempDewpointWater temp
2016-Apr-29 03:21N 59°55' E 026°04'5912.1
2016-Apr-28 22:27N 59°41' E 024°09'1112.4
2016-Apr-28 21:33N 59°37' E 023°48'1212.4
2016-Apr-28 20:33N 59°33' E 023°25'  
2016-Apr-25 14:32N 59°35' E 023°04'1313.0
2016-Apr-25 13:33N 59°39' E 023°28'1312.7
2016-Apr-25 12:33N 59°43' E 023°53'7612.0
2016-Apr-25 06:13N 59°60' E 026°20'710.2
2016-Apr-25 05:33N 60°01' E 026°33'1010.4
2016-Apr-25 04:33N 60°00' E 026°54'2410.1
2016-Apr-25 02:12N 60°10' E 027°37'710.0
2016-Apr-25 01:33N 60°12' E 027°50'1111.1
2016-Apr-25 00:33N 60°09' E 028°11'1110.8
2016-Apr-24 23:33N 60°04' E 028°31'7 7.3
2016-Apr-24 22:33N 59°57' E 028°34'9 9.3
2016-Apr-24 21:33N 59°48' E 028°25'6 6.0
2016-Apr-24 20:33N 59°42' E 028°26'0 0.0
2016-Apr-24 19:32N 59°42' E 028°26'0 0.0
2016-Apr-24 18:32N 59°42' E 028°26'0 0.0
2016-Apr-24 17:23N 59°42' E 028°26'0 0.0
2016-Apr-24 16:26N 59°42' E 028°26'0 0.0
2016-Apr-24 15:26N 59°42' E 028°26'0 0.0
2016-Apr-24 14:26N 59°42' E 028°26'0 0.0
2016-Apr-24 13:26N 59°42' E 028°26'0 0.0
2016-Apr-24 12:26N 59°42' E 028°26'0 0.0
2016-Apr-24 11:29N 59°42' E 028°26'0 0.0
2016-Apr-24 10:32N 59°42' E 028°26'0 0.0
2016-Apr-24 09:29N 59°42' E 028°26'0 0.0
2016-Apr-24 08:32N 59°42' E 028°26'0 0.0
2016-Apr-24 07:32N 59°42' E 028°26'0 0.0
2016-Apr-24 06:32N 59°42' E 028°26'0 0.0
2016-Apr-24 05:32N 59°42' E 028°26'0 0.0
2016-Apr-24 04:32N 59°42' E 028°26'0 0.0
2016-Apr-24 03:23N 59°42' E 028°26'0 0.0
2016-Apr-24 02:23N 59°42' E 028°26'0 0.0
2016-Apr-24 01:23N 59°42' E 028°26'0 0.0
2016-Apr-24 00:26N 59°42' E 028°26'0 0.0
2016-Apr-23 23:29N 59°42' E 028°26'0 0.0
2016-Apr-23 22:29N 59°42' E 028°26'0 0.0
2016-Apr-23 21:29N 59°42' E 028°26'0 0.0
2016-Apr-23 20:32N 59°42' E 028°26'0 0.0
2016-Apr-23 19:32N 59°42' E 028°26'0 0.0
2016-Apr-23 18:32N 59°42' E 028°26'0 0.0
2016-Apr-23 17:32N 59°42' E 028°26'0 0.0
2016-Apr-23 16:32N 59°42' E 028°26'0 0.0
2016-Apr-23 15:33N 59°42' E 028°26'3 2.6
2016-Apr-23 14:33N 59°45' E 028°24'1110.9
2016-Apr-23 13:33N 59°55' E 028°32'2 2.4
2016-Apr-23 12:32N 59°56' E 028°37'0 0.0
2016-Apr-23 11:32N 59°56' E 028°37'0 0.0
2016-Apr-23 10:32N 59°56' E 028°37'0 0.0
2016-Apr-23 09:32N 59°56' E 028°37'0 0.0
2016-Apr-23 08:32N 59°56' E 028°37'0 0.0
2016-Apr-23 07:32N 59°56' E 028°37'0 0.0
2016-Apr-23 06:32N 59°56' E 028°37'0 0.1
2016-Apr-23 04:26N 59°56' E 028°37'0 0.0
2016-Apr-23 03:26N 59°56' E 028°37'0 0.0
2016-Apr-23 02:26N 59°56' E 028°37'0 0.0
2016-Apr-23 01:26N 59°56' E 028°37'0 0.0
2016-Apr-23 00:29N 59°56' E 028°37'0 0.0
2016-Apr-22 23:29N 59°56' E 028°37'0 0.0
2016-Apr-22 22:32N 59°56' E 028°37'0 0.0
2016-Apr-22 21:32N 59°56' E 028°37'0 0.0
2016-Apr-22 20:32N 59°56' E 028°37'0 0.0
2016-Apr-22 19:32N 59°56' E 028°37'0 0.1
2016-Apr-22 18:32N 59°56' E 028°37'0 0.0
2016-Apr-22 17:32N 59°56' E 028°37'0 0.2
2016-Apr-22 16:32N 59°56' E 028°37'0 0.5
2016-Apr-22 15:33N 59°56' E 028°36'8 7.9
2016-Apr-22 14:33N 60°03' E 028°27'1111.3
2016-Apr-22 13:33N 60°08' E 028°07'1610.9
2016-Apr-22 12:05N 60°08' E 027°35'2011.5
2016-Apr-22 10:21N 59°58' E 026°60'911.7
2016-Apr-22 09:33N 59°59' E 026°41'1211.7
2016-Apr-22 08:33N 59°57' E 026°19'7211.6
2016-Apr-22 02:17N 59°39' E 023°59'1011.9
2016-Apr-22 01:24N 59°36' E 023°39'1011.7
2016-Apr-22 00:32N 59°33' E 023°21'22911.4
2016-Apr-21 04:25N 56°29' E 019°01'2311.3
2016-Apr-21 02:24N 56°13' E 018°33'1011.8
2016-Apr-21 01:34N 56°07' E 018°18'1211.7
2016-Apr-21 00:33N 56°01' E 017°60'1211.7
2016-Apr-20 23:33N 55°55' E 017°42'1211.7
2016-Apr-20 22:33N 55°52' E 017°22'1211.6
2016-Apr-20 21:32N 55°50' E 017°01'4711.8
2016-Apr-20 17:33N 55°39' E 015°40'1212.1
2016-Apr-20 16:33N 55°35' E 015°20'1212.1
2016-Apr-20 15:33N 55°29' E 015°01'1212.1
2016-Apr-20 14:33N 55°24' E 014°42'1111.4
2016-Apr-20 13:33N 55°16' E 014°28'1211.5
2016-Apr-20 12:33N 55°07' E 014°15'1111.4
2016-Apr-20 11:33N 54°60' E 013°60'1212.0
2016-Apr-20 10:33N 54°55' E 013°40'3611.9
2016-Apr-20 07:31N 54°43' E 012°41'1212.2
2016-Apr-20 06:31N 54°37' E 012°23'1110.4
2016-Apr-20 05:30N 54°28' E 012°13'1010.7
2016-Apr-20 04:33N 54°25' E 011°56'1312.8
2016-Apr-20 03:33N 54°28' E 011°35'1313.2
2016-Apr-20 02:33N 54°34' E 011°15'1313.0
2016-Apr-20 01:33N 54°41' E 010°56'1312.9
2016-Apr-20 00:33N 54°53' E 010°53'1313.4
2016-Apr-19 23:34N 55°06' E 011°02'1211.8
2016-Apr-19 22:33N 55°18' E 011°03'7610.7
2016-Apr-19 15:30N 56°32' E 011°24'1110.5
2016-Apr-19 14:29N 56°39' E 011°38'1010.5
2016-Apr-19 13:33N 56°46' E 011°52'1211.8
2016-Apr-19 12:33N 56°57' E 011°45'1211.4
2016-Apr-19 11:30N 57°08' E 011°37'1111.4
2016-Apr-19 10:33N 57°18' E 011°31'1211.7
2016-Apr-19 09:33N 57°29' E 011°22'1211.9
2016-Apr-19 08:33N 57°37' E 011°06'1212.1
2016-Apr-19 07:33N 57°45' E 010°49'1212.2
2016-Apr-19 06:34N 57°48' E 010°27'  

Dump ship's entire track history